Time,TemperatureF,DewpointF,PressureIn,WindDirection,WindDirectionDegrees,WindSpeedMPH,WindSpeedGustMPH,Humidity,HourlyPrecipIn,Conditions,Clouds,dailyrainin,SolarRadiationWatts/m^2,SoftwareType,DateUTC
2013-08-19 00:04:00,66.6,62.3,30.03,South,181,6.0,10.0,86,0.00,,,0.00,0,Wunderground v.1.15,2013-08-19 05:04:00,
2013-08-19 00:09:00,66.8,62.5,30.02,South,170,6.0,10.0,86,0.00,,,0.00,0,Wunderground v.1.15,2013-08-19 05:09:00,
2013-08-19 00:14:00,66.9,62.6,30.02,SSE,151,5.0,6.0,86,0.00,,,0.00,0,Wunderground v.1.15,2013-08-19 05:14:00,
2013-08-19 00:19:00,66.9,62.6,30.02,South,172,5.0,7.0,86,0.00,,,0.00,0,Wunderground v.1.15,2013-08-19 05:19:00,
2013-08-19 00:25:00,66.9,62.6,30.02,South,175,5.0,7.0,86,0.00,,,0.00,0,Wunderground v.1.15,2013-08-19 05:25:00,
2013-08-19 00:31:00,66.9,62.6,30.02,South,184,5.0,8.0,86,0.00,,,0.00,0,Wunderground v.1.15,2013-08-19 05:31:00,
2013-08-19 00:36:00,67.0,62.7,30.01,SSE,167,5.0,8.0,86,0.00,,,0.00,0,Wunderground v.1.15,2013-08-19 05:36:00,
2013-08-19 00:41:00,66.9,62.6,30.01,SSE,165,5.0,7.0,86,0.00,,,0.00,0,Wunderground v.1.15,2013-08-19 05:41:00,
2013-08-19 00:47:00,66.6,62.3,30.00,SSE,158,6.0,8.0,86,0.00,,,0.00,0,Wunderground v.1.15,2013-08-19 05:47:00,
2013-08-19 00:53:00,66.6,62.3,30.00,South,190,6.0,6.0,86,0.00,,,0.00,0,Wunderground v.1.15,2013-08-19 05:53:00,
2013-08-19 00:58:00,66.6,62.3,30.00,SSW,209,6.0,10.0,86,0.00,,,0.00,0,Wunderground v.1.15,2013-08-19 05:58:00,
2013-08-19 01:03:00,66.7,62.4,30.00,South,169,6.0,10.0,86,0.00,,,0.00,0,Wunderground v.1.15,2013-08-19 06:03:00,
2013-08-19 01:09:00,66.7,62.4,30.00,SSE,163,6.0,10.0,86,0.00,,,0.00,0,Wunderground v.1.15,2013-08-19 06:09:00,
2013-08-19 01:14:00,66.6,62.3,30.00,South,180,6.0,7.0,86,0.00,,,0.00,0,Wunderground v.1.15,2013-08-19 06:14:00,
2013-08-19 01:19:00,66.6,62.3,30.00,SSE,161,6.0,9.0,86,0.00,,,0.00,0,Wunderground v.1.15,2013-08-19 06:19:00,
2013-08-19 01:24:00,66.6,62.3,30.00,SSE,150,6.0,8.0,86,0.00,,,0.00,0,Wunderground v.1.15,2013-08-19 06:24:00,
2013-08-19 01:29:00,66.5,62.2,29.99,South,173,5.0,8.0,86,0.00,,,0.00,0,Wunderground v.1.15,2013-08-19 06:29:00,
2013-08-19 01:35:00,66.3,62.3,29.99,South,183,5.0,6.0,87,0.00,,,0.00,0,Wunderground v.1.15,2013-08-19 06:35:00,
2013-08-19 01:40:00,66.2,62.2,29.99,SSE,161,4.0,4.0,87,0.00,,,0.00,0,Wunderground v.1.15,2013-08-19 06:40:00,
2013-08-19 01:45:00,66.1,62.1,29.99,South,179,4.0,6.0,87,0.00,,,0.00,0,Wunderground v.1.15,2013-08-19 06:45:00,
2013-08-19 01:51:00,66.2,62.2,29.99,South,169,5.0,6.0,87,0.00,,,0.00,0,Wunderground v.1.15,2013-08-19 06:51:00,
2013-08-19 01:56:00,66.2,62.2,29.98,SSE,160,5.0,6.0,87,0.00,,,0.00,0,Wunderground v.1.15,2013-08-19 06:56:00,
2013-08-19 02:02:00,66.1,62.1,29.98,South,172,4.0,6.0,87,0.00,,,0.00,0,Wunderground v.1.15,2013-08-19 07:02:00,
2013-08-19 02:07:00,66.1,62.1,29.98,South,173,5.0,6.0,87,0.00,,,0.00,0,Wunderground v.1.15,2013-08-19 07:07:00,
2013-08-19 02:13:00,66.2,62.2,29.98,SSE,148,4.0,6.0,87,0.00,,,0.00,0,Wunderground v.1.15,2013-08-19 07:13:00,
2013-08-19 02:18:00,66.5,62.5,29.98,SSW,194,5.0,8.0,87,0.00,,,0.00,0,Wunderground v.1.15,2013-08-19 07:18:00,
2013-08-19 02:24:00,66.7,62.4,29.98,South,188,5.0,7.0,86,0.00,,,0.00,0,Wunderground v.1.15,2013-08-19 07:24:00,
2013-08-19 02:29:00,66.5,62.2,29.98,SSE,160,5.0,10.0,86,0.00,,,0.00,0,Wunderground v.1.15,2013-08-19 07:29:00,
2013-08-19 02:35:00,66.5,62.5,29.99,South,174,6.0,7.0,87,0.00,,,0.00,0,Wunderground v.1.15,2013-08-19 07:35:00,
2013-08-19 02:40:00,66.6,62.6,29.99,SSE,165,6.0,6.0,87,0.00,,,0.00,0,Wunderground v.1.15,2013-08-19 07:40:00,
2013-08-19 02:46:00,66.7,62.4,29.99,South,183,5.0,6.0,86,0.00,,,0.00,0,Wunderground v.1.15,2013-08-19 07:46:00,
2013-08-19 02:52:00,66.8,62.5,29.99,SSE,166,4.0,5.0,86,0.00,,,0.00,0,Wunderground v.1.15,2013-08-19 07:52:00,
2013-08-19 02:58:00,66.7,62.4,29.99,South,176,4.0,5.0,86,0.00,,,0.00,0,Wunderground v.1.15,2013-08-19 07:58:00,
2013-08-19 03:04:00,66.7,62.4,29.99,South,172,5.0,6.0,86,0.00,,,0.00,0,Wunderground v.1.15,2013-08-19 08:04:00,
2013-08-19 03:09:00,66.6,62.3,29.99,SSE,157,4.0,6.0,86,0.00,,,0.00,0,Wunderground v.1.15,2013-08-19 08:09:00,
2013-08-19 03:14:00,66.5,62.2,29.99,South,171,4.0,5.0,86,0.00,,,0.00,0,Wunderground v.1.15,2013-08-19 08:14:00,
2013-08-19 03:19:00,66.3,62.3,29.99,South,173,4.0,5.0,87,0.00,,,0.00,0,Wunderground v.1.15,2013-08-19 08:19:00,
2013-08-19 03:24:00,66.2,62.2,29.99,SSE,164,4.0,7.0,87,0.00,,,0.00,0,Wunderground v.1.15,2013-08-19 08:24:00,
2013-08-19 03:29:00,66.4,62.4,29.99,SSE,164,4.0,7.0,87,0.00,,,0.00,0,Wunderground v.1.15,2013-08-19 08:29:00,
2013-08-19 03:34:00,66.5,62.5,29.99,SSE,157,5.0,6.0,87,0.00,,,0.00,0,Wunderground v.1.15,2013-08-19 08:34:00,
2013-08-19 03:39:00,66.4,62.4,29.99,SSE,156,5.0,6.0,87,0.00,,,0.00,0,Wunderground v.1.15,2013-08-19 08:39:00,
2013-08-19 03:44:00,66.3,62.3,29.99,SSE,167,5.0,6.0,87,0.00,,,0.00,0,Wunderground v.1.15,2013-08-19 08:44:00,
2013-08-19 03:49:00,66.1,62.1,29.99,SSE,155,4.0,6.0,87,0.00,,,0.00,0,Wunderground v.1.15,2013-08-19 08:49:00,
2013-08-19 03:54:00,65.8,62.1,29.99,SSE,159,4.0,4.0,88,0.00,,,0.00,0,Wunderground v.1.15,2013-08-19 08:54:00,
2013-08-19 03:59:00,65.5,61.9,29.99,SSE,159,3.0,4.0,88,0.00,,,0.00,0,Wunderground v.1.15,2013-08-19 08:59:00,
2013-08-19 04:05:00,65.2,61.9,29.99,South,171,3.0,4.0,89,0.00,,,0.00,0,Wunderground v.1.15,2013-08-19 09:05:00,
2013-08-19 04:10:00,65.2,61.9,29.99,SSE,157,3.0,3.0,89,0.00,,,0.00,0,Wunderground v.1.15,2013-08-19 09:10:00,
2013-08-19 04:15:00,65.2,61.9,29.99,SSE,157,4.0,6.0,89,0.00,,,0.00,0,Wunderground v.1.15,2013-08-19 09:15:00,
2013-08-19 04:20:00,65.4,62.1,29.99,SSE,150,4.0,4.0,89,0.00,,,0.00,0,Wunderground v.1.15,2013-08-19 09:20:00,
2013-08-19 04:26:00,65.4,62.1,29.99,South,173,3.0,4.0,89,0.00,,,0.00,0,Wunderground v.1.15,2013-08-19 09:26:00,
2013-08-19 04:32:00,65.5,62.2,30.00,South,170,3.0,4.0,89,0.00,,,0.00,0,Wunderground v.1.15,2013-08-19 09:32:00,
2013-08-19 04:37:00,65.5,62.2,30.00,South,180,3.0,5.0,89,0.00,,,0.00,0,Wunderground v.1.15,2013-08-19 09:37:00,
2013-08-19 04:42:00,65.6,62.3,29.99,SSE,157,3.0,5.0,89,0.00,,,0.00,0,Wunderground v.1.15,2013-08-19 09:42:00,
2013-08-19 04:47:00,65.7,62.4,29.99,SSE,167,3.0,5.0,89,0.00,,,0.00,0,Wunderground v.1.15,2013-08-19 09:47:00,
2013-08-19 04:53:00,65.7,62.0,29.98,SSE,161,4.0,4.0,88,0.00,,,0.00,0,Wunderground v.1.15,2013-08-19 09:53:00,
2013-08-19 04:59:00,65.6,62.3,29.98,SSE,156,4.0,4.0,89,0.00,,,0.00,0,Wunderground v.1.15,2013-08-19 09:59:00,
2013-08-19 05:05:00,65.5,62.2,29.98,South,180,3.0,4.0,89,0.00,,,0.00,0,Wunderground v.1.15,2013-08-19 10:05:00,
2013-08-19 05:11:00,65.3,62.0,29.98,SE,141,3.0,4.0,89,0.00,,,0.00,0,Wunderground v.1.15,2013-08-19 10:11:00,
2013-08-19 05:17:00,65.1,61.8,29.98,SE,140,3.0,4.0,89,0.00,,,0.00,0,Wunderground v.1.15,2013-08-19 10:17:00,
2013-08-19 05:23:00,64.8,61.8,29.98,SE,126,3.0,3.0,90,0.00,,,0.00,0,Wunderground v.1.15,2013-08-19 10:23:00,
2013-08-19 05:28:00,64.5,61.8,29.98,SE,128,3.0,4.0,91,0.00,,,0.00,0,Wunderground v.1.15,2013-08-19 10:28:00,
2013-08-19 05:33:00,64.5,61.8,29.98,SE,132,3.0,4.0,91,0.00,,,0.00,0,Wunderground v.1.15,2013-08-19 10:33:00,
2013-08-19 05:38:00,64.5,61.8,29.99,SSE,154,2.0,4.0,91,0.00,,,0.00,0,Wunderground v.1.15,2013-08-19 10:38:00,
2013-08-19 05:43:00,64.5,61.8,29.99,SSE,154,1.0,2.0,91,0.00,,,0.00,0,Wunderground v.1.15,2013-08-19 10:43:00,
2013-08-19 05:48:00,64.6,61.9,29.99,SSE,163,1.0,2.0,91,0.00,,,0.00,0,Wunderground v.1.15,2013-08-19 10:48:00,
2013-08-19 05:54:00,65.0,62.3,29.99,SSE,148,2.0,4.0,91,0.00,,,0.00,0,Wunderground v.1.15,2013-08-19 10:54:00,
2013-08-19 06:00:00,65.0,62.0,29.99,SSE,159,2.0,4.0,90,0.00,,,0.00,0,Wunderground v.1.15,2013-08-19 11:00:00,
2013-08-19 06:05:00,65.0,62.0,29.98,SE,145,2.0,4.0,90,0.00,,,0.00,0,Wunderground v.1.15,2013-08-19 11:05:00,
2013-08-19 06:10:00,65.1,62.1,29.98,SSE,153,2.0,2.0,90,0.00,,,0.00,0,Wunderground v.1.15,2013-08-19 11:10:00,
2013-08-19 06:16:00,65.1,62.1,29.98,SSE,159,3.0,5.0,90,0.00,,,0.00,0,Wunderground v.1.15,2013-08-19 11:16:00,
2013-08-19 06:22:00,64.9,61.9,29.98,SSE,159,4.0,5.0,90,0.00,,,0.00,0,Wunderground v.1.15,2013-08-19 11:22:00,
2013-08-19 06:27:00,64.7,61.7,29.98,SSE,157,4.0,5.0,90,0.00,,,0.00,0,Wunderground v.1.15,2013-08-19 11:27:00,
2013-08-19 06:32:00,64.7,61.7,29.98,South,171,4.0,5.0,90,0.00,,,0.00,0,Wunderground v.1.15,2013-08-19 11:32:00,
2013-08-19 06:37:00,64.5,61.8,29.98,SSE,155,4.0,6.0,91,0.00,,,0.00,0,Wunderground v.1.15,2013-08-19 11:37:00,
2013-08-19 06:42:00,64.4,61.7,29.98,SSE,159,4.0,5.0,91,0.00,,,0.00,0,Wunderground v.1.15,2013-08-19 11:42:00,
2013-08-19 06:48:00,64.2,61.5,29.98,SSE,156,4.0,5.0,91,0.00,,,0.00,5,Wunderground v.1.15,2013-08-19 11:48:00,
2013-08-19 06:54:00,64.1,61.4,29.98,SSE,161,4.0,6.0,91,0.00,,,0.00,12,Wunderground v.1.15,2013-08-19 11:54:00,
2013-08-19 07:00:00,64.0,61.3,29.98,SSE,166,4.0,4.0,91,0.00,,,0.00,18,Wunderground v.1.15,2013-08-19 12:00:00,
2013-08-19 07:06:00,64.0,61.3,29.98,SSE,157,4.0,5.0,91,0.00,,,0.00,26,Wunderground v.1.15,2013-08-19 12:06:00,
2013-08-19 07:12:00,64.0,61.3,29.98,SSE,167,4.0,5.0,91,0.00,,,0.00,32,Wunderground v.1.15,2013-08-19 12:12:00,
2013-08-19 07:17:00,64.1,61.4,29.98,SSE,165,4.0,6.0,91,0.00,,,0.00,39,Wunderground v.1.15,2013-08-19 12:17:00,
2013-08-19 07:22:00,64.1,61.7,29.98,SSE,156,5.0,7.0,92,0.00,,,0.00,35,Wunderground v.1.15,2013-08-19 12:22:00,
2013-08-19 07:27:00,64.2,61.5,29.98,SSE,161,5.0,8.0,91,0.00,,,0.00,32,Wunderground v.1.15,2013-08-19 12:27:00,
2013-08-19 07:33:00,64.2,61.8,29.98,SSE,164,5.0,7.0,92,0.00,,,0.00,32,Wunderground v.1.15,2013-08-19 12:33:00,
2013-08-19 07:39:00,64.1,61.4,29.98,SSE,165,6.0,7.0,91,0.00,,,0.00,37,Wunderground v.1.15,2013-08-19 12:39:00,
2013-08-19 07:44:00,64.4,62.0,29.98,SSW,202,5.0,6.0,92,0.00,,,0.00,47,Wunderground v.1.15,2013-08-19 12:44:00,
2013-08-19 07:50:00,64.8,62.1,29.98,South,174,4.0,4.0,91,0.00,,,0.00,70,Wunderground v.1.15,2013-08-19 12:50:00,
2013-08-19 07:56:00,65.1,62.4,29.98,South,175,4.0,6.0,91,0.00,,,0.00,123,Wunderground v.1.15,2013-08-19 12:56:00,
2013-08-19 08:02:00,65.6,62.6,29.98,South,190,5.0,6.0,90,0.00,,,0.00,139,Wunderground v.1.15,2013-08-19 13:02:00,
2013-08-19 08:07:00,66.1,63.1,29.98,South,176,4.0,7.0,90,0.00,,,0.00,149,Wunderground v.1.15,2013-08-19 13:07:00,
2013-08-19 08:12:00,66.5,63.2,29.98,SSE,164,4.0,6.0,89,0.00,,,0.00,162,Wunderground v.1.15,2013-08-19 13:12:00,
2013-08-19 08:17:00,66.8,63.1,29.99,SW,219,4.0,6.0,88,0.00,,,0.00,169,Wunderground v.1.15,2013-08-19 13:17:00,
2013-08-19 08:23:00,67.2,63.5,29.99,SSE,153,4.0,6.0,88,0.00,,,0.00,185,Wunderground v.1.15,2013-08-19 13:23:00,
2013-08-19 08:29:00,67.7,63.7,29.99,SSE,167,5.0,6.0,87,0.00,,,0.00,211,Wunderground v.1.15,2013-08-19 13:29:00,
2013-08-19 08:35:00,68.3,64.3,29.99,South,186,5.0,7.0,87,0.00,,,0.00,236,Wunderground v.1.15,2013-08-19 13:35:00,
2013-08-19 08:41:00,68.7,64.3,29.99,South,175,5.0,6.0,86,0.00,,,0.00,253,Wunderground v.1.15,2013-08-19 13:41:00,
2013-08-19 08:47:00,69.2,64.8,29.99,South,177,6.0,9.0,86,0.00,,,0.00,271,Wunderground v.1.15,2013-08-19 13:47:00,
2013-08-19 08:52:00,69.8,65.1,29.99,SSW,202,6.0,6.0,85,0.00,,,0.00,287,Wunderground v.1.15,2013-08-19 13:52:00,
2013-08-19 08:57:00,70.4,65.3,29.99,South,178,5.0,6.0,84,0.00,,,0.00,306,Wunderground v.1.15,2013-08-19 13:57:00,
2013-08-19 09:02:00,70.8,65.4,29.99,SSW,202,5.0,8.0,83,0.00,,,0.00,327,Wunderground v.1.15,2013-08-19 14:02:00,
2013-08-19 09:07:00,71.2,65.8,29.99,SSE,161,6.0,8.0,83,0.00,,,0.00,366,Wunderground v.1.15,2013-08-19 14:07:00,
2013-08-19 09:13:00,71.9,65.8,29.99,South,178,7.0,12.0,81,0.00,,,0.00,469,Wunderground v.1.15,2013-08-19 14:13:00,
2013-08-19 09:19:00,72.7,66.2,29.99,South,172,8.0,12.0,80,0.00,,,0.00,427,Wunderground v.1.15,2013-08-19 14:19:00,
2013-08-19 09:24:00,72.5,65.6,29.99,SSE,151,8.0,14.0,79,0.00,,,0.00,279,Wunderground v.1.15,2013-08-19 14:24:00,
2013-08-19 09:30:00,72.1,65.6,29.99,SSW,198,9.0,9.0,80,0.00,,,0.00,234,Wunderground v.1.15,2013-08-19 14:30:00,
2013-08-19 09:36:00,72.1,65.9,29.99,SSW,198,8.0,9.0,81,0.00,,,0.00,251,Wunderground v.1.15,2013-08-19 14:36:00,
2013-08-19 09:42:00,72.5,66.0,29.99,SSW,194,8.0,9.0,80,0.00,,,0.00,250,Wunderground v.1.15,2013-08-19 14:42:00,
2013-08-19 09:48:00,72.6,66.1,29.99,SE,144,8.0,11.0,80,0.00,,,0.00,250,Wunderground v.1.15,2013-08-19 14:48:00,
2013-08-19 09:54:00,72.8,66.6,29.99,South,173,8.0,11.0,81,0.00,,,0.00,290,Wunderground v.1.15,2013-08-19 14:54:00,
2013-08-19 09:59:00,73.0,66.1,29.98,SSE,152,8.0,14.0,79,0.00,,,0.00,350,Wunderground v.1.15,2013-08-19 14:59:00,
2013-08-19 10:04:00,73.1,66.6,29.98,SSE,161,8.0,10.0,80,0.00,,,0.00,306,Wunderground v.1.15,2013-08-19 15:04:00,
2013-08-19 10:09:00,74.0,67.1,29.98,SE,142,7.0,11.0,79,0.00,,,0.00,550,Wunderground v.1.15,2013-08-19 15:09:00,
2013-08-19 10:15:00,74.2,66.9,29.98,SSE,165,8.0,13.0,78,0.00,,,0.00,520,Wunderground v.1.15,2013-08-19 15:15:00,
2013-08-19 10:20:00,74.8,67.5,29.98,SE,143,10.0,10.0,78,0.00,,,0.00,538,Wunderground v.1.15,2013-08-19 15:20:00,
2013-08-19 10:26:00,75.7,67.6,29.98,South,171,8.0,10.0,76,0.00,,,0.00,545,Wunderground v.1.15,2013-08-19 15:26:00,
2013-08-19 10:32:00,75.8,67.7,29.98,SSE,168,8.0,12.0,76,0.00,,,0.00,577,Wunderground v.1.15,2013-08-19 15:32:00,
2013-08-19 10:38:00,76.1,68.0,29.98,SSE,148,9.0,14.0,76,0.00,,,0.00,577,Wunderground v.1.15,2013-08-19 15:38:00,
2013-08-19 10:43:00,76.2,67.7,29.98,SW,214,9.0,15.0,75,0.00,,,0.00,594,Wunderground v.1.15,2013-08-19 15:43:00,
2013-08-19 10:48:00,76.3,67.8,29.98,South,169,9.0,15.0,75,0.00,,,0.00,570,Wunderground v.1.15,2013-08-19 15:48:00,
2013-08-19 10:53:00,77.0,68.1,29.98,South,184,8.0,12.0,74,0.00,,,0.00,624,Wunderground v.1.15,2013-08-19 15:53:00,
2013-08-19 10:58:00,77.0,67.7,29.98,South,190,10.0,17.0,73,0.00,,,0.00,631,Wunderground v.1.15,2013-08-19 15:58:00,
2013-08-19 11:03:00,76.8,68.3,29.98,SSW,198,11.0,11.0,75,0.00,,,0.00,654,Wunderground v.1.15,2013-08-19 16:03:00,
2013-08-19 11:08:00,76.7,68.2,29.98,South,188,11.0,12.0,75,0.00,,,0.00,698,Wunderground v.1.15,2013-08-19 16:08:00,
2013-08-19 11:14:00,77.3,69.1,29.98,SSW,203,9.0,13.0,76,0.00,,,0.00,693,Wunderground v.1.15,2013-08-19 16:14:00,
2013-08-19 11:20:00,77.6,69.8,29.97,South,171,9.0,11.0,77,0.00,,,0.00,717,Wunderground v.1.15,2013-08-19 16:20:00,
2013-08-19 11:26:00,77.9,68.5,29.97,South,180,9.0,14.0,73,0.00,,,0.00,666,Wunderground v.1.15,2013-08-19 16:26:00,
2013-08-19 11:32:00,77.6,69.0,29.97,SSW,195,10.0,10.0,75,0.00,,,0.00,682,Wunderground v.1.15,2013-08-19 16:32:00,
2013-08-19 11:37:00,78.1,68.7,29.97,South,170,11.0,16.0,73,0.00,,,0.00,700,Wunderground v.1.15,2013-08-19 16:37:00,
2013-08-19 11:42:00,78.2,69.2,29.97,South,173,12.0,14.0,74,0.00,,,0.00,703,Wunderground v.1.15,2013-08-19 16:42:00,
2013-08-19 11:47:00,78.9,69.9,29.97,South,190,11.0,15.0,74,0.00,,,0.00,721,Wunderground v.1.15,2013-08-19 16:47:00,
2013-08-19 11:53:00,79.2,69.0,29.97,South,177,11.0,18.0,71,0.00,,,0.00,731,Wunderground v.1.15,2013-08-19 16:53:00,
2013-08-19 11:59:00,79.4,69.2,29.97,South,178,11.0,18.0,71,0.00,,,0.00,740,Wunderground v.1.15,2013-08-19 16:59:00,
2013-08-19 12:05:00,79.7,69.5,29.96,South,174,11.0,17.0,71,0.00,,,0.00,751,Wunderground v.1.15,2013-08-19 17:05:00,
2013-08-19 12:10:00,79.7,70.3,29.96,ESE,108,11.0,11.0,73,0.00,,,0.00,747,Wunderground v.1.15,2013-08-19 17:10:00,
2013-08-19 12:15:00,80.1,68.6,29.96,SSW,193,12.0,18.0,68,0.00,,,0.00,765,Wunderground v.1.15,2013-08-19 17:15:00,
2013-08-19 12:20:00,80.1,68.6,29.96,South,185,12.0,16.0,68,0.00,,,0.00,770,Wunderground v.1.15,2013-08-19 17:20:00,
2013-08-19 12:25:00,80.3,68.8,29.96,SSE,153,11.0,16.0,68,0.00,,,0.00,773,Wunderground v.1.15,2013-08-19 17:25:00,
2013-08-19 12:31:00,80.5,69.4,29.95,SSE,167,11.0,11.0,69,0.00,,,0.00,788,Wunderground v.1.15,2013-08-19 17:31:00,
2013-08-19 12:37:00,81.1,70.0,29.95,SSW,198,11.0,16.0,69,0.00,,,0.00,788,Wunderground v.1.15,2013-08-19 17:37:00,
2013-08-19 12:43:00,81.4,69.8,29.95,SSW,210,10.0,17.0,68,0.00,,,0.00,795,Wunderground v.1.15,2013-08-19 17:43:00,
2013-08-19 12:48:00,81.6,70.4,29.95,SSW,194,10.0,17.0,69,0.00,,,0.00,793,Wunderground v.1.15,2013-08-19 17:48:00,
2013-08-19 12:53:00,81.6,69.6,29.95,South,175,10.0,14.0,67,0.00,,,0.00,791,Wunderground v.1.15,2013-08-19 17:53:00,
2013-08-19 12:58:00,81.5,70.3,29.94,South,187,11.0,14.0,69,0.00,,,0.00,795,Wunderground v.1.15,2013-08-19 17:58:00,
2013-08-19 13:03:00,81.6,69.6,29.94,SSW,200,11.0,17.0,67,0.00,,,0.00,805,Wunderground v.1.15,2013-08-19 18:03:00,
2013-08-19 13:08:00,81.9,68.5,29.94,SSW,203,11.0,17.0,64,0.00,,,0.00,817,Wunderground v.1.15,2013-08-19 18:08:00,
2013-08-19 13:14:00,82.0,70.0,29.94,South,182,11.0,12.0,67,0.00,,,0.00,809,Wunderground v.1.15,2013-08-19 18:14:00,
2013-08-19 13:20:00,81.9,69.0,29.94,South,185,12.0,12.0,65,0.00,,,0.00,807,Wunderground v.1.15,2013-08-19 18:20:00,
2013-08-19 13:26:00,82.1,69.2,29.94,SE,137,12.0,15.0,65,0.00,,,0.00,809,Wunderground v.1.15,2013-08-19 18:26:00,
2013-08-19 13:31:00,82.1,69.6,29.93,South,173,11.0,11.0,66,0.00,,,0.00,807,Wunderground v.1.15,2013-08-19 18:31:00,
2013-08-19 13:37:00,82.4,69.9,29.93,SSW,200,13.0,18.0,66,0.00,,,0.00,805,Wunderground v.1.15,2013-08-19 18:37:00,
2013-08-19 13:42:00,82.6,70.1,29.93,SW,221,12.0,12.0,66,0.00,,,0.00,800,Wunderground v.1.15,2013-08-19 18:42:00,
2013-08-19 13:47:00,82.8,69.8,29.93,SW,231,11.0,19.0,65,0.00,,,0.00,800,Wunderground v.1.15,2013-08-19 18:47:00,
2013-08-19 13:52:00,83.0,69.6,29.93,SSW,192,11.0,12.0,64,0.00,,,0.00,802,Wunderground v.1.15,2013-08-19 18:52:00,
2013-08-19 13:57:00,82.8,70.3,29.92,SE,137,11.0,17.0,66,0.00,,,0.00,802,Wunderground v.1.15,2013-08-19 18:57:00,
2013-08-19 14:02:00,83.1,70.6,29.92,SSE,167,12.0,17.0,66,0.00,,,0.00,800,Wunderground v.1.15,2013-08-19 19:02:00,
2013-08-19 14:07:00,83.2,70.7,29.92,South,174,12.0,20.0,66,0.00,,,0.00,802,Wunderground v.1.15,2013-08-19 19:07:00,
2013-08-19 14:13:00,82.9,70.4,29.92,South,174,12.0,13.0,66,0.00,,,0.00,795,Wunderground v.1.15,2013-08-19 19:13:00,
2013-08-19 14:19:00,83.4,69.9,29.92,SSW,210,11.0,13.0,64,0.00,,,0.00,786,Wunderground v.1.15,2013-08-19 19:19:00,
2013-08-19 14:24:00,83.2,69.3,29.92,South,185,11.0,13.0,63,0.00,,,0.00,782,Wunderground v.1.15,2013-08-19 19:24:00,
2013-08-19 14:29:00,83.5,69.6,29.92,South,173,12.0,19.0,63,0.00,,,0.00,751,Wunderground v.1.15,2013-08-19 19:29:00,
2013-08-19 14:34:00,83.6,70.1,29.92,South,169,14.0,24.0,64,0.00,,,0.00,772,Wunderground v.1.15,2013-08-19 19:34:00,
2013-08-19 14:39:00,83.7,69.8,29.92,South,190,13.0,24.0,63,0.00,,,0.00,775,Wunderground v.1.15,2013-08-19 19:39:00,
2013-08-19 14:45:00,83.9,70.4,29.92,SSW,204,11.0,16.0,64,0.00,,,0.00,775,Wunderground v.1.15,2013-08-19 19:45:00,
2013-08-19 14:51:00,83.7,69.8,29.91,South,173,12.0,17.0,63,0.00,,,0.00,759,Wunderground v.1.15,2013-08-19 19:51:00,
2013-08-19 14:57:00,84.0,70.5,29.91,South,190,12.0,17.0,64,0.00,,,0.00,745,Wunderground v.1.15,2013-08-19 19:57:00,
2013-08-19 15:02:00,83.9,70.4,29.91,SW,226,11.0,15.0,64,0.00,,,0.00,768,Wunderground v.1.15,2013-08-19 20:02:00,
2013-08-19 15:08:00,84.2,71.2,29.91,SSW,198,11.0,15.0,65,0.00,,,0.00,728,Wunderground v.1.15,2013-08-19 20:08:00,
2013-08-19 15:14:00,84.6,70.6,29.90,SSW,200,10.0,14.0,63,0.00,,,0.00,724,Wunderground v.1.15,2013-08-19 20:14:00,
2013-08-19 15:19:00,84.6,70.6,29.90,South,179,10.0,18.0,63,0.00,,,0.00,733,Wunderground v.1.15,2013-08-19 20:19:00,
2013-08-19 15:24:00,84.2,70.2,29.90,SSW,194,11.0,19.0,63,0.00,,,0.00,717,Wunderground v.1.15,2013-08-19 20:24:00,
2013-08-19 15:30:00,84.2,70.2,29.90,South,169,12.0,16.0,63,0.00,,,0.00,686,Wunderground v.1.15,2013-08-19 20:30:00,
2013-08-19 15:36:00,84.4,70.4,29.90,South,171,10.0,16.0,63,0.00,,,0.00,429,Wunderground v.1.15,2013-08-19 20:36:00,
2013-08-19 15:41:00,84.2,70.2,29.90,SSE,155,10.0,11.0,63,0.00,,,0.00,652,Wunderground v.1.15,2013-08-19 20:41:00,
2013-08-19 15:46:00,84.2,71.6,29.90,SSE,149,10.0,11.0,66,0.00,,,0.00,687,Wunderground v.1.15,2013-08-19 20:46:00,
2013-08-19 15:51:00,84.5,70.5,29.90,South,189,9.0,9.0,63,0.00,,,0.00,671,Wunderground v.1.15,2013-08-19 20:51:00,
2013-08-19 15:57:00,84.5,70.0,29.89,South,186,9.0,12.0,62,0.00,,,0.00,679,Wunderground v.1.15,2013-08-19 20:57:00,
2013-08-19 16:02:00,83.8,69.9,29.90,South,175,9.0,13.0,63,0.00,,,0.00,181,Wunderground v.1.15,2013-08-19 21:02:00,
2013-08-19 16:07:00,83.7,70.2,29.89,South,179,10.0,14.0,64,0.00,,,0.00,452,Wunderground v.1.15,2013-08-19 21:07:00,
2013-08-19 16:12:00,84.4,70.4,29.89,SSW,213,10.0,11.0,63,0.00,,,0.00,640,Wunderground v.1.15,2013-08-19 21:12:00,
2013-08-19 16:18:00,84.6,70.6,29.89,SSW,198,9.0,12.0,63,0.00,,,0.00,601,Wunderground v.1.15,2013-08-19 21:18:00,
2013-08-19 16:24:00,84.8,70.3,29.89,SSW,205,10.0,14.0,62,0.00,,,0.00,591,Wunderground v.1.15,2013-08-19 21:24:00,
2013-08-19 16:30:00,84.5,69.6,29.89,SW,217,10.0,10.0,61,0.00,,,0.00,571,Wunderground v.1.15,2013-08-19 21:30:00,
2013-08-19 16:35:00,84.7,69.8,29.89,South,178,9.0,15.0,61,0.00,,,0.00,594,Wunderground v.1.15,2013-08-19 21:35:00,
2013-08-19 16:41:00,84.7,70.2,29.89,South,191,10.0,11.0,62,0.00,,,0.00,571,Wunderground v.1.15,2013-08-19 21:41:00,
2013-08-19 16:47:00,84.5,70.0,29.89,SSE,161,11.0,13.0,62,0.00,,,0.00,548,Wunderground v.1.15,2013-08-19 21:47:00,
2013-08-19 16:52:00,84.3,69.9,29.89,South,186,11.0,13.0,62,0.00,,,0.00,548,Wunderground v.1.15,2013-08-19 21:52:00,
2013-08-19 16:57:00,84.0,70.5,29.89,South,186,11.0,14.0,64,0.00,,,0.00,529,Wunderground v.1.15,2013-08-19 21:57:00,
2013-08-19 17:02:00,83.7,70.2,29.89,SW,219,10.0,11.0,64,0.00,,,0.00,501,Wunderground v.1.15,2013-08-19 22:02:00,
2013-08-19 17:07:00,84.2,70.7,29.89,South,189,9.0,13.0,64,0.00,,,0.00,515,Wunderground v.1.15,2013-08-19 22:07:00,
2013-08-19 17:12:00,84.3,70.3,29.88,South,173,10.0,12.0,63,0.00,,,0.00,471,Wunderground v.1.15,2013-08-19 22:12:00,
2013-08-19 17:18:00,84.0,70.0,29.88,South,181,11.0,14.0,63,0.00,,,0.00,202,Wunderground v.1.15,2013-08-19 22:18:00,
2013-08-19 17:23:00,83.5,70.5,29.88,SSW,197,11.0,11.0,65,0.00,,,0.00,425,Wunderground v.1.15,2013-08-19 22:23:00,
2013-08-19 17:28:00,83.8,70.3,29.88,South,178,10.0,14.0,64,0.00,,,0.00,418,Wunderground v.1.15,2013-08-19 22:28:00,
2013-08-19 17:33:00,83.7,70.7,29.88,SSW,198,9.0,11.0,65,0.00,,,0.00,425,Wunderground v.1.15,2013-08-19 22:33:00,
2013-08-19 17:39:00,83.7,70.2,29.88,South,177,9.0,11.0,64,0.00,,,0.00,374,Wunderground v.1.15,2013-08-19 22:39:00,
2013-08-19 17:45:00,83.7,70.7,29.88,SSW,206,9.0,16.0,65,0.00,,,0.00,371,Wunderground v.1.15,2013-08-19 22:45:00,
2013-08-19 17:51:00,83.6,70.1,29.87,South,180,10.0,10.0,64,0.00,,,0.00,343,Wunderground v.1.15,2013-08-19 22:51:00,
2013-08-19 17:57:00,83.3,70.3,29.87,South,187,10.0,11.0,65,0.00,,,0.00,329,Wunderground v.1.15,2013-08-19 22:57:00,
2013-08-19 18:02:00,83.3,70.8,29.87,South,178,10.0,15.0,66,0.00,,,0.00,308,Wunderground v.1.15,2013-08-19 23:02:00,
2013-08-19 18:08:00,83.3,70.8,29.87,South,171,8.0,15.0,66,0.00,,,0.00,288,Wunderground v.1.15,2013-08-19 23:08:00,
2013-08-19 18:13:00,83.3,71.2,29.87,SSE,162,8.0,15.0,67,0.00,,,0.00,276,Wunderground v.1.15,2013-08-19 23:13:00,
2013-08-19 18:19:00,83.1,70.1,29.87,SSW,201,10.0,16.0,65,0.00,,,0.00,255,Wunderground v.1.15,2013-08-19 23:19:00,
2013-08-19 18:24:00,83.0,70.5,29.87,South,186,10.0,13.0,66,0.00,,,0.00,244,Wunderground v.1.15,2013-08-19 23:24:00,
2013-08-19 18:29:00,83.0,70.9,29.87,South,177,8.0,13.0,67,0.00,,,0.00,229,Wunderground v.1.15,2013-08-19 23:29:00,
2013-08-19 18:35:00,82.8,70.7,29.87,South,175,7.0,17.0,67,0.00,,,0.00,209,Wunderground v.1.15,2013-08-19 23:35:00,
2013-08-19 18:41:00,82.5,70.0,29.86,South,169,9.0,11.0,66,0.00,,,0.00,178,Wunderground v.1.15,2013-08-19 23:41:00,
2013-08-19 18:46:00,82.4,70.3,29.86,South,170,9.0,11.0,67,0.00,,,0.00,83,Wunderground v.1.15,2013-08-19 23:46:00,
2013-08-19 18:51:00,82.4,70.8,29.86,South,176,8.0,9.0,68,0.00,,,0.00,72,Wunderground v.1.15,2013-08-19 23:51:00,
2013-08-19 18:56:00,82.1,70.5,29.87,SSE,154,7.0,10.0,68,0.00,,,0.00,72,Wunderground v.1.15,2013-08-19 23:56:00,
2013-08-19 19:01:00,82.0,70.8,29.87,South,184,8.0,8.0,69,0.00,,,0.00,67,Wunderground v.1.15,2013-08-20 00:01:00,
2013-08-19 19:06:00,81.9,70.3,29.87,South,185,8.0,11.0,68,0.00,,,0.00,74,Wunderground v.1.15,2013-08-20 00:06:00,
2013-08-19 19:11:00,81.8,70.2,29.87,South,169,8.0,10.0,68,0.00,,,0.00,77,Wunderground v.1.15,2013-08-20 00:11:00,
2013-08-19 19:17:00,81.4,69.8,29.87,SSW,205,9.0,11.0,68,0.00,,,0.00,83,Wunderground v.1.15,2013-08-20 00:17:00,
2013-08-19 19:22:00,81.2,70.1,29.87,SSE,164,7.0,8.0,69,0.00,,,0.00,56,Wunderground v.1.15,2013-08-20 00:22:00,
2013-08-19 19:27:00,81.2,69.6,29.87,South,189,7.0,10.0,68,0.00,,,0.00,53,Wunderground v.1.15,2013-08-20 00:27:00,
2013-08-19 19:32:00,80.9,69.8,29.87,South,177,8.0,11.0,69,0.00,,,0.00,51,Wunderground v.1.15,2013-08-20 00:32:00,
2013-08-19 19:37:00,80.7,70.0,29.86,South,190,8.0,11.0,70,0.00,,,0.00,42,Wunderground v.1.15,2013-08-20 00:37:00,
2013-08-19 19:42:00,80.3,70.0,29.86,South,185,7.0,7.0,71,0.00,,,0.00,32,Wunderground v.1.15,2013-08-20 00:42:00,
2013-08-19 19:47:00,79.8,70.0,29.86,SSE,153,6.0,7.0,72,0.00,,,0.00,26,Wunderground v.1.15,2013-08-20 00:47:00,
2013-08-19 19:52:00,79.5,70.1,29.86,SSE,156,6.0,6.0,73,0.00,,,0.00,23,Wunderground v.1.15,2013-08-20 00:52:00,
2013-08-19 19:58:00,79.2,69.8,29.86,SSE,150,5.0,6.0,73,0.00,,,0.00,18,Wunderground v.1.15,2013-08-20 00:58:00,
2013-08-19 20:03:00,79.0,69.6,29.87,South,190,5.0,6.0,73,0.00,,,0.00,14,Wunderground v.1.15,2013-08-20 01:03:00,
2013-08-19 20:08:00,78.7,69.7,29.87,SSE,165,5.0,7.0,74,0.00,,,0.00,9,Wunderground v.1.15,2013-08-20 01:08:00,
2013-08-19 20:13:00,78.4,69.8,29.87,SSE,162,5.0,7.0,75,0.00,,,0.00,7,Wunderground v.1.15,2013-08-20 01:13:00,
2013-08-19 20:18:00,78.2,69.6,29.87,SE,142,5.0,9.0,75,0.00,,,0.00,0,Wunderground v.1.15,2013-08-20 01:18:00,
2013-08-19 20:24:00,77.9,69.7,29.87,SSE,157,4.0,6.0,76,0.00,,,0.00,0,Wunderground v.1.15,2013-08-20 01:24:00,
2013-08-19 20:30:00,77.8,69.6,29.87,South,175,4.0,4.0,76,0.00,,,0.00,0,Wunderground v.1.15,2013-08-20 01:30:00,
2013-08-19 20:36:00,77.5,69.7,29.87,SSE,154,5.0,9.0,77,0.00,,,0.00,0,Wunderground v.1.15,2013-08-20 01:36:00,
2013-08-19 20:42:00,77.3,69.9,29.88,SE,136,5.0,5.0,78,0.00,,,0.00,0,Wunderground v.1.15,2013-08-20 01:42:00,
2013-08-19 20:47:00,77.1,69.7,29.88,South,169,4.0,6.0,78,0.00,,,0.00,0,Wunderground v.1.15,2013-08-20 01:47:00,
2013-08-19 20:52:00,76.9,69.5,29.88,SSE,153,4.0,5.0,78,0.00,,,0.00,0,Wunderground v.1.15,2013-08-20 01:52:00,
2013-08-19 20:57:00,76.7,69.7,29.88,SE,144,4.0,5.0,79,0.00,,,0.00,0,Wunderground v.1.15,2013-08-20 01:57:00,
2013-08-19 21:03:00,76.5,69.5,29.88,SE,134,4.0,8.0,79,0.00,,,0.00,0,Wunderground v.1.15,2013-08-20 02:03:00,
2013-08-19 21:09:00,76.4,69.4,29.88,SSE,161,5.0,8.0,79,0.00,,,0.00,0,Wunderground v.1.15,2013-08-20 02:09:00,
2013-08-19 21:15:00,76.3,69.3,29.89,SE,140,5.0,5.0,79,0.00,,,0.00,0,Wunderground v.1.15,2013-08-20 02:15:00,
2013-08-19 21:21:00,76.1,69.1,29.89,SE,142,5.0,8.0,79,0.00,,,0.00,0,Wunderground v.1.15,2013-08-20 02:21:00,
2013-08-19 21:27:00,75.8,69.2,29.89,SE,146,5.0,8.0,80,0.00,,,0.00,0,Wunderground v.1.15,2013-08-20 02:27:00,
2013-08-19 21:33:00,75.7,69.1,29.89,SE,139,5.0,6.0,80,0.00,,,0.00,0,Wunderground v.1.15,2013-08-20 02:33:00,
2013-08-19 21:38:00,75.5,68.9,29.89,SSE,159,5.0,7.0,80,0.00,,,0.00,0,Wunderground v.1.15,2013-08-20 02:38:00,
2013-08-19 21:43:00,75.3,68.7,29.89,ESE,117,4.0,5.0,80,0.00,,,0.00,0,Wunderground v.1.15,2013-08-20 02:43:00,
2013-08-19 21:48:00,75.2,69.0,29.89,SSE,157,4.0,7.0,81,0.00,,,0.00,0,Wunderground v.1.15,2013-08-20 02:48:00,
2013-08-19 21:53:00,75.1,68.9,29.89,SSE,163,5.0,5.0,81,0.00,,,0.00,0,Wunderground v.1.15,2013-08-20 02:53:00,
2013-08-19 21:58:00,75.0,68.8,29.89,SSE,148,5.0,8.0,81,0.00,,,0.00,0,Wunderground v.1.15,2013-08-20 02:58:00,
2013-08-19 22:04:00,75.0,68.8,29.89,SSE,156,5.0,9.0,81,0.00,,,0.00,0,Wunderground v.1.15,2013-08-20 03:04:00,
2013-08-19 22:10:00,74.7,68.8,29.89,SE,133,5.0,5.0,82,0.00,,,0.00,0,Wunderground v.1.15,2013-08-20 03:10:00,
2013-08-19 22:16:00,74.6,68.7,29.89,SE,145,6.0,8.0,82,0.00,,,0.00,0,Wunderground v.1.15,2013-08-20 03:16:00,
2013-08-19 22:21:00,74.4,68.5,29.89,SE,138,6.0,6.0,82,0.00,,,0.00,0,Wunderground v.1.15,2013-08-20 03:21:00,
2013-08-19 22:26:00,74.4,68.5,29.89,SSE,163,5.0,7.0,82,0.00,,,0.00,0,Wunderground v.1.15,2013-08-20 03:26:00,
2013-08-19 22:32:00,74.2,68.7,29.89,South,173,5.0,7.0,83,0.00,,,0.00,0,Wunderground v.1.15,2013-08-20 03:32:00,
2013-08-19 22:37:00,74.0,68.5,29.89,SE,139,5.0,8.0,83,0.00,,,0.00,0,Wunderground v.1.15,2013-08-20 03:37:00,
2013-08-19 22:42:00,73.8,68.3,29.89,SSE,161,6.0,6.0,83,0.00,,,0.00,0,Wunderground v.1.15,2013-08-20 03:42:00,
2013-08-19 22:47:00,73.6,68.1,29.89,SSW,194,6.0,7.0,83,0.00,,,0.00,0,Wunderground v.1.15,2013-08-20 03:47:00,
2013-08-19 22:52:00,73.5,68.4,29.89,SSE,156,7.0,8.0,84,0.00,,,0.00,0,Wunderground v.1.15,2013-08-20 03:52:00,
2013-08-19 22:58:00,73.3,68.2,29.89,SSE,165,6.0,8.0,84,0.00,,,0.00,0,Wunderground v.1.15,2013-08-20 03:58:00,
2013-08-19 23:01:00,73.2,68.1,29.89,SSE,154,6.0,8.0,84,0.00,,,0.00,0,Wunderground v.1.15,2013-08-20 04:01:00,
2013-08-19 23:04:00,73.1,68.0,29.89,South,171,6.0,8.0,84,0.00,,,0.00,0,Wunderground v.1.15,2013-08-20 04:04:00,
2013-08-19 23:06:00,73.0,67.9,29.89,South,172,6.0,8.0,84,0.00,,,0.00,0,Wunderground v.1.15,2013-08-20 04:06:00,
2013-08-19 23:07:00,73.0,67.9,29.89,South,170,6.0,8.0,84,0.00,,,0.00,0,Wunderground v.1.15,2013-08-20 04:07:00,
2013-08-19 23:12:00,73.0,67.9,29.89,South,171,6.0,8.0,84,0.00,,,0.00,0,Wunderground v.1.15,2013-08-20 04:12:00,
2013-08-19 23:13:00,73.0,67.9,29.89,SSE,159,6.0,8.0,84,0.00,,,0.00,0,Wunderground v.1.15,2013-08-20 04:13:00,
2013-08-19 23:18:00,72.9,67.8,29.89,SSE,156,6.0,8.0,84,0.00,,,0.00,0,Wunderground v.1.15,2013-08-20 04:18:00,
2013-08-19 23:23:00,73.0,67.9,29.89,SSE,167,6.0,7.0,84,0.00,,,0.00,0,Wunderground v.1.15,2013-08-20 04:23:00,
2013-08-19 23:28:00,73.0,67.9,29.89,SSE,164,6.0,10.0,84,0.00,,,0.00,0,Wunderground v.1.15,2013-08-20 04:28:00,
2013-08-19 23:34:00,72.9,67.8,29.88,SSE,155,7.0,11.0,84,0.00,,,0.00,0,Wunderground v.1.15,2013-08-20 04:34:00,
2013-08-19 23:40:00,72.8,67.7,29.89,SSW,196,7.0,7.0,84,0.00,,,0.00,0,Wunderground v.1.15,2013-08-20 04:40:00,
2013-08-19 23:46:00,72.7,67.9,29.88,SSE,165,7.0,7.0,85,0.00,,,0.00,0,Wunderground v.1.15,2013-08-20 04:46:00,
2013-08-19 23:52:00,72.5,67.7,29.88,SSE,165,6.0,10.0,85,0.00,,,0.00,0,Wunderground v.1.15,2013-08-20 04:52:00,
2013-08-19 23:58:00,72.4,67.6,29.88,South,191,7.0,10.0,85,0.00,,,0.00,0,Wunderground v.1.15,2013-08-20 04:58:00,